sensor_id;sensor_type;location;lat;lon;timestamp;temperature;humidity
84294;DHT22;74463;51.182;3.210;2024-02-26T00:00:07;8.80;82.50
84294;DHT22;74463;51.182;3.210;2024-02-26T00:02:37;8.80;82.00
84294;DHT22;74463;51.182;3.210;2024-02-26T00:05:06;8.70;82.40
84294;DHT22;74463;51.182;3.210;2024-02-26T00:07:34;8.60;83.30
84294;DHT22;74463;51.182;3.210;2024-02-26T00:10:01;8.60;83.50
84294;DHT22;74463;51.182;3.210;2024-02-26T00:12:28;8.70;83.50
84294;DHT22;74463;51.182;3.210;2024-02-26T00:14:54;8.60;83.10
84294;DHT22;74463;51.182;3.210;2024-02-26T00:17:23;8.50;83.40
84294;DHT22;74463;51.182;3.210;2024-02-26T00:19:52;8.30;84.30
84294;DHT22;74463;51.182;3.210;2024-02-26T00:22:19;8.40;85.00
84294;DHT22;74463;51.182;3.210;2024-02-26T00:24:47;8.30;84.60
84294;DHT22;74463;51.182;3.210;2024-02-26T00:27:14;8.30;85.10
84294;DHT22;74463;51.182;3.210;2024-02-26T00:29:41;8.30;85.50
84294;DHT22;74463;51.182;3.210;2024-02-26T00:32:08;8.20;85.20
84294;DHT22;74463;51.182;3.210;2024-02-26T00:34:35;8.40;85.50
84294;DHT22;74463;51.182;3.210;2024-02-26T00:37:04;8.30;85.00
84294;DHT22;74463;51.182;3.210;2024-02-26T00:39:31;8.30;85.40
84294;DHT22;74463;51.182;3.210;2024-02-26T00:41:58;8.30;86.60
84294;DHT22;74463;51.182;3.210;2024-02-26T00:44:25;8.30;84.90
84294;DHT22;74463;51.182;3.210;2024-02-26T00:46:52;8.20;85.90
84294;DHT22;74463;51.182;3.210;2024-02-26T00:49:19;8.10;86.40
84294;DHT22;74463;51.182;3.210;2024-02-26T00:51:45;8.10;86.70
84294;DHT22;74463;51.182;3.210;2024-02-26T00:54:14;8.20;86.20
84294;DHT22;74463;51.182;3.210;2024-02-26T00:56:41;8.20;85.90
84294;DHT22;74463;51.182;3.210;2024-02-26T00:59:08;8.30;86.10
84294;DHT22;74463;51.182;3.210;2024-02-26T01:01:34;8.20;85.80
84294;DHT22;74463;51.182;3.210;2024-02-26T01:04:02;8.20;85.80
84294;DHT22;74463;51.182;3.210;2024-02-26T01:06:29;8.00;86.70
84294;DHT22;74463;51.182;3.210;2024-02-26T01:08:56;8.10;87.50
84294;DHT22;74463;51.182;3.210;2024-02-26T01:11:24;8.20;86.90
84294;DHT22;74463;51.182;3.210;2024-02-26T01:13:51;8.20;86.90
84294;DHT22;74463;51.182;3.210;2024-02-26T01:16:22;8.10;87.20
84294;DHT22;74463;51.182;3.210;2024-02-26T01:18:49;8.10;87.70
84294;DHT22;74463;51.182;3.210;2024-02-26T01:21:16;8.10;87.20
84294;DHT22;74463;51.182;3.210;2024-02-26T01:23:42;8.20;86.90
84294;DHT22;74463;51.182;3.210;2024-02-26T01:26:09;8.20;87.30
84294;DHT22;74463;51.182;3.210;2024-02-26T01:28:38;8.20;87.30
84294;DHT22;74463;51.182;3.210;2024-02-26T01:31:05;8.10;87.60
84294;DHT22;74463;51.182;3.210;2024-02-26T01:33:34;8.10;88.10
84294;DHT22;74463;51.182;3.210;2024-02-26T01:36:01;8.10;87.70
84294;DHT22;74463;51.182;3.210;2024-02-26T01:38:28;8.00;88.00
84294;DHT22;74463;51.182;3.210;2024-02-26T01:40:55;7.80;88.90
84294;DHT22;74463;51.182;3.210;2024-02-26T01:43:22;7.90;90.00
84294;DHT22;74463;51.182;3.210;2024-02-26T01:45:50;7.80;89.00
84294;DHT22;74463;51.182;3.210;2024-02-26T01:48:17;7.80;89.40
84294;DHT22;74463;51.182;3.210;2024-02-26T01:50:44;8.00;88.90
84294;DHT22;74463;51.182;3.210;2024-02-26T01:53:12;7.90;88.80
84294;DHT22;74463;51.182;3.210;2024-02-26T01:55:39;7.90;89.40
84294;DHT22;74463;51.182;3.210;2024-02-26T01:58:07;7.90;88.90
84294;DHT22;74463;51.182;3.210;2024-02-26T02:00:34;7.90;89.00
84294;DHT22;74463;51.182;3.210;2024-02-26T02:03:03;7.90;89.50
84294;DHT22;74463;51.182;3.210;2024-02-26T02:05:31;7.80;89.60
84294;DHT22;74463;51.182;3.210;2024-02-26T02:07:59;7.90;89.60
84294;DHT22;74463;51.182;3.210;2024-02-26T02:10:29;7.70;89.90
84294;DHT22;74463;51.182;3.210;2024-02-26T02:12:56;7.80;90.30
84294;DHT22;74463;51.182;3.210;2024-02-26T02:15:23;7.70;90.20
84294;DHT22;74463;51.182;3.210;2024-02-26T02:17:50;7.70;90.10
84294;DHT22;74463;51.182;3.210;2024-02-26T02:20:19;7.80;90.10
84294;DHT22;74463;51.182;3.210;2024-02-26T02:22:47;7.70;90.10
84294;DHT22;74463;51.182;3.210;2024-02-26T02:25:14;7.60;90.20
84294;DHT22;74463;51.182;3.210;2024-02-26T02:27:42;7.60;90.50
84294;DHT22;74463;51.182;3.210;2024-02-26T02:30:11;7.60;90.50
84294;DHT22;74463;51.182;3.210;2024-02-26T02:32:40;7.60;90.60
84294;DHT22;74463;51.182;3.210;2024-02-26T02:35:07;7.70;90.40
84294;DHT22;74463;51.182;3.210;2024-02-26T02:37:34;7.50;90.90
84294;DHT22;74463;51.182;3.210;2024-02-26T02:40:05;7.60;90.80
84294;DHT22;74463;51.182;3.210;2024-02-26T02:42:32;7.70;90.60
84294;DHT22;74463;51.182;3.210;2024-02-26T02:44:59;7.80;90.60
84294;DHT22;74463;51.182;3.210;2024-02-26T02:47:26;7.70;90.50
84294;DHT22;74463;51.182;3.210;2024-02-26T02:49:53;7.70;90.30
84294;DHT22;74463;51.182;3.210;2024-02-26T02:52:20;7.70;90.50
84294;DHT22;74463;51.182;3.210;2024-02-26T02:54:46;7.60;90.60
84294;DHT22;74463;51.182;3.210;2024-02-26T02:57:15;7.60;90.90
84294;DHT22;74463;51.182;3.210;2024-02-26T02:59:42;7.50;90.80
84294;DHT22;74463;51.182;3.210;2024-02-26T03:02:09;7.50;90.90
84294;DHT22;74463;51.182;3.210;2024-02-26T03:04:36;7.50;91.10
84294;DHT22;74463;51.182;3.210;2024-02-26T03:07:02;7.60;91.10
84294;DHT22;74463;51.182;3.210;2024-02-26T03:09:29;7.60;90.80
84294;DHT22;74463;51.182;3.210;2024-02-26T03:11:57;7.50;90.80
84294;DHT22;74463;51.182;3.210;2024-02-26T03:14:25;7.60;90.90
84294;DHT22;74463;51.182;3.210;2024-02-26T03:16:54;7.60;90.70
84294;DHT22;74463;51.182;3.210;2024-02-26T03:19:21;7.60;90.50
84294;DHT22;74463;51.182;3.210;2024-02-26T03:21:48;7.60;90.60
84294;DHT22;74463;51.182;3.210;2024-02-26T03:24:15;7.70;90.40
84294;DHT22;74463;51.182;3.210;2024-02-26T03:26:42;7.60;90.50
84294;DHT22;74463;51.182;3.210;2024-02-26T03:29:09;7.60;90.40
84294;DHT22;74463;51.182;3.210;2024-02-26T03:31:37;7.40;90.50
84294;DHT22;74463;51.182;3.210;2024-02-26T03:34:04;7.40;90.80
84294;DHT22;74463;51.182;3.210;2024-02-26T03:36:31;7.50;90.70
84294;DHT22;74463;51.182;3.210;2024-02-26T03:38:58;7.60;90.50
84294;DHT22;74463;51.182;3.210;2024-02-26T03:41:25;7.60;90.30
84294;DHT22;74463;51.182;3.210;2024-02-26T03:43:52;7.50;90.30
84294;DHT22;74463;51.182;3.210;2024-02-26T03:46:19;7.40;90.60
84294;DHT22;74463;51.182;3.210;2024-02-26T03:48:47;7.40;90.50
84294;DHT22;74463;51.182;3.210;2024-02-26T03:51:14;7.40;90.50
84294;DHT22;74463;51.182;3.210;2024-02-26T03:53:41;7.50;90.70
84294;DHT22;74463;51.182;3.210;2024-02-26T03:56:08;7.40;90.60
84294;DHT22;74463;51.182;3.210;2024-02-26T03:58:37;7.40;90.70
84294;DHT22;74463;51.182;3.210;2024-02-26T04:01:06;7.50;90.50
84294;DHT22;74463;51.182;3.210;2024-02-26T04:03:33;7.50;90.60
84294;DHT22;74463;51.182;3.210;2024-02-26T04:06:02;7.50;90.50
84294;DHT22;74463;51.182;3.210;2024-02-26T04:08:29;7.50;90.70
84294;DHT22;74463;51.182;3.210;2024-02-26T04:10:56;7.40;90.60
84294;DHT22;74463;51.182;3.210;2024-02-26T04:13:23;7.30;91.00
84294;DHT22;74463;51.182;3.210;2024-02-26T04:15:50;7.30;90.90
84294;DHT22;74463;51.182;3.210;2024-02-26T04:18:17;7.30;90.90
84294;DHT22;74463;51.182;3.210;2024-02-26T04:20:44;7.20;90.80
84294;DHT22;74463;51.182;3.210;2024-02-26T04:23:12;7.30;91.00
84294;DHT22;74463;51.182;3.210;2024-02-26T04:25:39;7.20;91.10
84294;DHT22;74463;51.182;3.210;2024-02-26T04:28:06;7.30;91.10
84294;DHT22;74463;51.182;3.210;2024-02-26T04:30:33;7.30;91.00
84294;DHT22;74463;51.182;3.210;2024-02-26T04:33:00;7.30;91.20
84294;DHT22;74463;51.182;3.210;2024-02-26T04:35:27;7.20;91.00
84294;DHT22;74463;51.182;3.210;2024-02-26T04:37:54;7.20;91.10
84294;DHT22;74463;51.182;3.210;2024-02-26T04:40:22;7.20;91.10
84294;DHT22;74463;51.182;3.210;2024-02-26T04:42:49;7.20;91.20
84294;DHT22;74463;51.182;3.210;2024-02-26T04:45:16;7.30;91.20
84294;DHT22;74463;51.182;3.210;2024-02-26T04:47:43;7.20;91.00
84294;DHT22;74463;51.182;3.210;2024-02-26T04:50:10;7.30;91.10
84294;DHT22;74463;51.182;3.210;2024-02-26T04:52:37;7.20;90.90
84294;DHT22;74463;51.182;3.210;2024-02-26T04:55:04;7.20;91.00
84294;DHT22;74463;51.182;3.210;2024-02-26T04:57:32;7.30;90.90
84294;DHT22;74463;51.182;3.210;2024-02-26T04:59:59;7.30;90.80
84294;DHT22;74463;51.182;3.210;2024-02-26T05:02:26;7.20;90.60
84294;DHT22;74463;51.182;3.210;2024-02-26T05:04:55;7.10;91.00
84294;DHT22;74463;51.182;3.210;2024-02-26T05:07:22;7.00;91.00
84294;DHT22;74463;51.182;3.210;2024-02-26T05:09:49;7.00;91.10
84294;DHT22;74463;51.182;3.210;2024-02-26T05:12:16;7.10;91.10
84294;DHT22;74463;51.182;3.210;2024-02-26T05:14:44;7.10;90.90
84294;DHT22;74463;51.182;3.210;2024-02-26T05:17:11;7.10;91.00
84294;DHT22;74463;51.182;3.210;2024-02-26T05:19:38;7.00;90.90
84294;DHT22;74463;51.182;3.210;2024-02-26T05:22:05;7.00;91.00
84294;DHT22;74463;51.182;3.210;2024-02-26T05:24:32;7.10;91.10
84294;DHT22;74463;51.182;3.210;2024-02-26T05:27:00;7.00;90.90
84294;DHT22;74463;51.182;3.210;2024-02-26T05:29:27;7.10;91.20
84294;DHT22;74463;51.182;3.210;2024-02-26T05:31:55;7.10;91.20
84294;DHT22;74463;51.182;3.210;2024-02-26T05:34:22;7.10;91.10
84294;DHT22;74463;51.182;3.210;2024-02-26T05:36:49;7.00;91.20
84294;DHT22;74463;51.182;3.210;2024-02-26T05:39:16;7.00;91.00
84294;DHT22;74463;51.182;3.210;2024-02-26T05:41:43;7.00;91.20
84294;DHT22;74463;51.182;3.210;2024-02-26T05:44:11;7.00;91.30
84294;DHT22;74463;51.182;3.210;2024-02-26T05:46:38;7.00;91.40
84294;DHT22;74463;51.182;3.210;2024-02-26T05:49:06;6.90;91.30
84294;DHT22;74463;51.182;3.210;2024-02-26T05:51:33;7.00;91.30
84294;DHT22;74463;51.182;3.210;2024-02-26T05:54:00;7.00;90.90
84294;DHT22;74463;51.182;3.210;2024-02-26T05:56:27;7.00;91.20
84294;DHT22;74463;51.182;3.210;2024-02-26T05:58:54;7.00;91.10
84294;DHT22;74463;51.182;3.210;2024-02-26T06:01:21;7.00;90.90
84294;DHT22;74463;51.182;3.210;2024-02-26T06:03:48;6.90;91.10
84294;DHT22;74463;51.182;3.210;2024-02-26T06:06:17;7.00;90.90
84294;DHT22;74463;51.182;3.210;2024-02-26T06:08:44;7.10;90.80
84294;DHT22;74463;51.182;3.210;2024-02-26T06:11:11;7.10;90.90
84294;DHT22;74463;51.182;3.210;2024-02-26T06:13:38;7.00;91.00
84294;DHT22;74463;51.182;3.210;2024-02-26T06:16:05;7.00;91.10
84294;DHT22;74463;51.182;3.210;2024-02-26T06:18:34;7.10;91.00
84294;DHT22;74463;51.182;3.210;2024-02-26T06:21:01;7.00;90.90
84294;DHT22;74463;51.182;3.210;2024-02-26T06:23:29;7.10;90.80
84294;DHT22;74463;51.182;3.210;2024-02-26T06:25:56;7.10;90.80
84294;DHT22;74463;51.182;3.210;2024-02-26T06:28:23;7.20;90.80
84294;DHT22;74463;51.182;3.210;2024-02-26T06:30:50;7.30;90.30
84294;DHT22;74463;51.182;3.210;2024-02-26T06:33:18;7.10;90.50
84294;DHT22;74463;51.182;3.210;2024-02-26T06:35:45;7.00;90.80
84294;DHT22;74463;51.182;3.210;2024-02-26T06:38:12;7.10;90.60
84294;DHT22;74463;51.182;3.210;2024-02-26T06:40:40;7.10;90.50
84294;DHT22;74463;51.182;3.210;2024-02-26T06:43:07;7.10;90.50
84294;DHT22;74463;51.182;3.210;2024-02-26T06:45:34;7.10;90.30
84294;DHT22;74463;51.182;3.210;2024-02-26T06:48:01;7.00;90.50
84294;DHT22;74463;51.182;3.210;2024-02-26T06:50:28;7.00;90.60
84294;DHT22;74463;51.182;3.210;2024-02-26T06:52:55;7.10;90.40
84294;DHT22;74463;51.182;3.210;2024-02-26T06:55:22;7.10;90.40
84294;DHT22;74463;51.182;3.210;2024-02-26T06:57:51;7.10;90.20
84294;DHT22;74463;51.182;3.210;2024-02-26T07:00:18;7.20;90.30
84294;DHT22;74463;51.182;3.210;2024-02-26T07:02:45;7.10;90.30
84294;DHT22;74463;51.182;3.210;2024-02-26T07:05:12;7.20;90.10
84294;DHT22;74463;51.182;3.210;2024-02-26T07:07:39;7.20;89.00
84294;DHT22;74463;51.182;3.210;2024-02-26T07:10:06;7.10;89.50
84294;DHT22;74463;51.182;3.210;2024-02-26T07:12:33;7.10;90.00
84294;DHT22;74463;51.182;3.210;2024-02-26T07:15:02;7.20;90.00
84294;DHT22;74463;51.182;3.210;2024-02-26T07:17:29;7.20;88.50
84294;DHT22;74463;51.182;3.210;2024-02-26T07:19:56;7.20;89.60
84294;DHT22;74463;51.182;3.210;2024-02-26T07:22:23;7.30;89.50
84294;DHT22;74463;51.182;3.210;2024-02-26T07:24:50;7.20;88.50
84294;DHT22;74463;51.182;3.210;2024-02-26T07:27:18;7.20;88.10
84294;DHT22;74463;51.182;3.210;2024-02-26T07:29:46;7.30;88.20
84294;DHT22;74463;51.182;3.210;2024-02-26T07:32:15;7.20;89.00
84294;DHT22;74463;51.182;3.210;2024-02-26T07:34:42;7.20;88.60
84294;DHT22;74463;51.182;3.210;2024-02-26T07:37:10;7.20;88.80
84294;DHT22;74463;51.182;3.210;2024-02-26T07:39:37;7.20;88.30
84294;DHT22;74463;51.182;3.210;2024-02-26T07:42:04;7.20;88.30
84294;DHT22;74463;51.182;3.210;2024-02-26T07:44:32;7.20;88.40
84294;DHT22;74463;51.182;3.210;2024-02-26T07:46:59;7.10;88.50
84294;DHT22;74463;51.182;3.210;2024-02-26T07:49:27;7.10;88.50
84294;DHT22;74463;51.182;3.210;2024-02-26T07:51:54;7.00;88.90
84294;DHT22;74463;51.182;3.210;2024-02-26T07:54:23;7.00;89.10
84294;DHT22;74463;51.182;3.210;2024-02-26T07:56:50;7.20;87.60
84294;DHT22;74463;51.182;3.210;2024-02-26T07:59:17;7.10;87.80
84294;DHT22;74463;51.182;3.210;2024-02-26T08:01:44;7.20;88.20
84294;DHT22;74463;51.182;3.210;2024-02-26T08:04:15;7.20;88.10
84294;DHT22;74463;51.182;3.210;2024-02-26T08:06:43;7.00;88.00
84294;DHT22;74463;51.182;3.210;2024-02-26T08:09:10;7.00;88.60
84294;DHT22;74463;51.182;3.210;2024-02-26T08:11:38;7.00;89.30
84294;DHT22;74463;51.182;3.210;2024-02-26T08:14:05;6.90;89.50
84294;DHT22;74463;51.182;3.210;2024-02-26T08:16:32;6.80;90.00
84294;DHT22;74463;51.182;3.210;2024-02-26T08:18:59;6.80;89.60
84294;DHT22;74463;51.182;3.210;2024-02-26T08:21:26;6.80;89.90
84294;DHT22;74463;51.182;3.210;2024-02-26T08:23:54;6.90;89.70
84294;DHT22;74463;51.182;3.210;2024-02-26T08:26:21;6.80;89.60
84294;DHT22;74463;51.182;3.210;2024-02-26T08:28:49;6.70;89.70
84294;DHT22;74463;51.182;3.210;2024-02-26T08:31:17;6.80;89.80
84294;DHT22;74463;51.182;3.210;2024-02-26T08:33:44;6.90;90.00
84294;DHT22;74463;51.182;3.210;2024-02-26T08:36:11;6.90;88.90
84294;DHT22;74463;51.182;3.210;2024-02-26T08:38:38;6.90;89.30
84294;DHT22;74463;51.182;3.210;2024-02-26T08:41:07;6.90;89.40
84294;DHT22;74463;51.182;3.210;2024-02-26T08:43:33;6.90;88.90
84294;DHT22;74463;51.182;3.210;2024-02-26T08:46:00;6.90;89.70
84294;DHT22;74463;51.182;3.210;2024-02-26T08:48:28;6.90;89.30
84294;DHT22;74463;51.182;3.210;2024-02-26T08:50:55;6.90;89.00
84294;DHT22;74463;51.182;3.210;2024-02-26T08:53:22;6.80;89.20
84294;DHT22;74463;51.182;3.210;2024-02-26T08:55:49;6.90;90.10
84294;DHT22;74463;51.182;3.210;2024-02-26T08:58:18;6.80;88.80
84294;DHT22;74463;51.182;3.210;2024-02-26T09:00:46;6.80;89.20
84294;DHT22;74463;51.182;3.210;2024-02-26T09:03:13;6.70;89.50
84294;DHT22;74463;51.182;3.210;2024-02-26T09:05:40;6.80;90.00
84294;DHT22;74463;51.182;3.210;2024-02-26T09:08:07;6.70;90.20
84294;DHT22;74463;51.182;3.210;2024-02-26T09:10:34;6.90;89.60
84294;DHT22;74463;51.182;3.210;2024-02-26T09:13:01;6.80;90.00
84294;DHT22;74463;51.182;3.210;2024-02-26T09:15:29;6.70;90.20
84294;DHT22;74463;51.182;3.210;2024-02-26T09:17:56;6.90;90.00
84294;DHT22;74463;51.182;3.210;2024-02-26T09:20:23;6.80;89.30
84294;DHT22;74463;51.182;3.210;2024-02-26T09:22:50;6.80;90.10
84294;DHT22;74463;51.182;3.210;2024-02-26T09:25:18;6.80;90.00
84294;DHT22;74463;51.182;3.210;2024-02-26T09:27:45;6.90;90.10
84294;DHT22;74463;51.182;3.210;2024-02-26T09:30:13;6.80;90.00
84294;DHT22;74463;51.182;3.210;2024-02-26T09:32:41;6.80;90.00
84294;DHT22;74463;51.182;3.210;2024-02-26T09:35:12;6.80;90.20
84294;DHT22;74463;51.182;3.210;2024-02-26T09:37:40;6.80;90.00
84294;DHT22;74463;51.182;3.210;2024-02-26T09:40:10;6.80;90.10
84294;DHT22;74463;51.182;3.210;2024-02-26T09:42:42;6.70;90.20
84294;DHT22;74463;51.182;3.210;2024-02-26T09:45:12;6.60;90.20
84294;DHT22;74463;51.182;3.210;2024-02-26T09:47:40;6.80;90.40
84294;DHT22;74463;51.182;3.210;2024-02-26T09:50:09;6.80;90.30
84294;DHT22;74463;51.182;3.210;2024-02-26T09:52:38;6.70;90.50
84294;DHT22;74463;51.182;3.210;2024-02-26T09:55:08;6.70;90.50
84294;DHT22;74463;51.182;3.210;2024-02-26T09:57:35;6.80;90.60
84294;DHT22;74463;51.182;3.210;2024-02-26T10:00:04;6.70;90.30
84294;DHT22;74463;51.182;3.210;2024-02-26T10:02:33;6.70;90.60
84294;DHT22;74463;51.182;3.210;2024-02-26T10:05:05;6.70;90.70
84294;DHT22;74463;51.182;3.210;2024-02-26T10:07:35;6.70;90.80
84294;DHT22;74463;51.182;3.210;2024-02-26T10:10:02;6.70;90.80
84294;DHT22;74463;51.182;3.210;2024-02-26T10:12:30;6.70;90.70
84294;DHT22;74463;51.182;3.210;2024-02-26T10:14:58;6.80;90.70
84294;DHT22;74463;51.182;3.210;2024-02-26T10:17:25;6.70;90.40
84294;DHT22;74463;51.182;3.210;2024-02-26T10:19:52;6.70;90.70
84294;DHT22;74463;51.182;3.210;2024-02-26T10:22:23;6.60;90.70
84294;DHT22;74463;51.182;3.210;2024-02-26T10:24:50;6.70;90.90
84294;DHT22;74463;51.182;3.210;2024-02-26T10:27:17;6.70;91.00
84294;DHT22;74463;51.182;3.210;2024-02-26T10:29:45;6.70;90.60
84294;DHT22;74463;51.182;3.210;2024-02-26T10:32:14;6.90;90.50
84294;DHT22;74463;51.182;3.210;2024-02-26T10:34:41;6.90;90.40
84294;DHT22;74463;51.182;3.210;2024-02-26T10:37:09;6.90;90.50
84294;DHT22;74463;51.182;3.210;2024-02-26T10:39:38;6.90;90.60
84294;DHT22;74463;51.182;3.210;2024-02-26T10:42:05;6.90;90.30
84294;DHT22;74463;51.182;3.210;2024-02-26T10:44:35;6.90;90.50
84294;DHT22;74463;51.182;3.210;2024-02-26T10:47:02;7.00;90.10
84294;DHT22;74463;51.182;3.210;2024-02-26T10:49:30;6.90;90.30
84294;DHT22;74463;51.182;3.210;2024-02-26T10:51:56;7.00;90.00
84294;DHT22;74463;51.182;3.210;2024-02-26T10:54:26;7.00;90.30
84294;DHT22;74463;51.182;3.210;2024-02-26T10:56:56;6.90;90.30
84294;DHT22;74463;51.182;3.210;2024-02-26T10:59:23;6.90;90.40
84294;DHT22;74463;51.182;3.210;2024-02-26T11:01:51;6.90;90.20
84294;DHT22;74463;51.182;3.210;2024-02-26T11:04:18;7.10;90.20
84294;DHT22;74463;51.182;3.210;2024-02-26T11:06:46;7.10;90.10
84294;DHT22;74463;51.182;3.210;2024-02-26T11:09:15;7.20;90.10
84294;DHT22;74463;51.182;3.210;2024-02-26T11:11:43;7.10;89.70
84294;DHT22;74463;51.182;3.210;2024-02-26T11:14:12;7.20;89.40
84294;DHT22;74463;51.182;3.210;2024-02-26T11:16:41;7.10;89.70
84294;DHT22;74463;51.182;3.210;2024-02-26T11:19:09;7.20;90.10
84294;DHT22;74463;51.182;3.210;2024-02-26T11:21:37;7.40;90.00
84294;DHT22;74463;51.182;3.210;2024-02-26T11:24:11;7.20;89.50
84294;DHT22;74463;51.182;3.210;2024-02-26T11:26:41;7.10;90.20
84294;DHT22;74463;51.182;3.210;2024-02-26T11:29:14;7.10;90.40
84294;DHT22;74463;51.182;3.210;2024-02-26T11:31:42;7.00;90.30
84294;DHT22;74463;51.182;3.210;2024-02-26T11:34:09;7.10;90.30
84294;DHT22;74463;51.182;3.210;2024-02-26T11:36:37;7.10;90.40
84294;DHT22;74463;51.182;3.210;2024-02-26T11:39:05;7.10;90.20
84294;DHT22;74463;51.182;3.210;2024-02-26T11:41:32;7.20;90.00
84294;DHT22;74463;51.182;3.210;2024-02-26T11:44:01;7.30;89.80
84294;DHT22;74463;51.182;3.210;2024-02-26T11:46:32;7.30;89.40
84294;DHT22;74463;51.182;3.210;2024-02-26T11:49:00;7.30;89.60
84294;DHT22;74463;51.182;3.210;2024-02-26T11:51:27;7.30;90.00
84294;DHT22;74463;51.182;3.210;2024-02-26T11:53:55;7.30;89.80
84294;DHT22;74463;51.182;3.210;2024-02-26T11:56:24;7.30;88.90
84294;DHT22;74463;51.182;3.210;2024-02-26T11:58:57;7.40;89.60
84294;DHT22;74463;51.182;3.210;2024-02-26T12:01:43;7.20;89.70
84294;DHT22;74463;51.182;3.210;2024-02-26T12:04:15;7.40;90.10
84294;DHT22;74463;51.182;3.210;2024-02-26T12:06:45;7.50;89.20
84294;DHT22;74463;51.182;3.210;2024-02-26T12:09:12;7.50;88.30
84294;DHT22;74463;51.182;3.210;2024-02-26T12:11:40;7.50;89.00
84294;DHT22;74463;51.182;3.210;2024-02-26T12:14:09;7.50;88.40
84294;DHT22;74463;51.182;3.210;2024-02-26T12:16:36;7.40;89.60
84294;DHT22;74463;51.182;3.210;2024-02-26T12:19:07;7.30;89.30
84294;DHT22;74463;51.182;3.210;2024-02-26T12:21:35;7.30;89.80
84294;DHT22;74463;51.182;3.210;2024-02-26T12:24:12;7.20;89.30
84294;DHT22;74463;51.182;3.210;2024-02-26T12:26:40;7.20;89.90
84294;DHT22;74463;51.182;3.210;2024-02-26T12:29:07;7.30;90.00
84294;DHT22;74463;51.182;3.210;2024-02-26T12:31:35;7.30;89.90
84294;DHT22;74463;51.182;3.210;2024-02-26T12:34:07;7.30;88.80
84294;DHT22;74463;51.182;3.210;2024-02-26T12:36:35;7.30;89.90
84294;DHT22;74463;51.182;3.210;2024-02-26T12:39:03;7.40;89.50
84294;DHT22;74463;51.182;3.210;2024-02-26T12:41:31;7.40;88.80
84294;DHT22;74463;51.182;3.210;2024-02-26T12:43:59;7.50;88.50
84294;DHT22;74463;51.182;3.210;2024-02-26T12:46:26;7.50;88.60
84294;DHT22;74463;51.182;3.210;2024-02-26T12:48:55;7.60;88.80
84294;DHT22;74463;51.182;3.210;2024-02-26T12:51:25;7.60;88.30
84294;DHT22;74463;51.182;3.210;2024-02-26T12:53:53;7.60;88.30
84294;DHT22;74463;51.182;3.210;2024-02-26T12:56:21;7.60;87.40
84294;DHT22;74463;51.182;3.210;2024-02-26T12:58:49;7.70;87.60
84294;DHT22;74463;51.182;3.210;2024-02-26T13:01:19;7.70;87.70
84294;DHT22;74463;51.182;3.210;2024-02-26T13:03:49;7.70;87.90
84294;DHT22;74463;51.182;3.210;2024-02-26T13:06:17;7.80;87.50
84294;DHT22;74463;51.182;3.210;2024-02-26T13:08:46;7.80;87.10
84294;DHT22;74463;51.182;3.210;2024-02-26T13:11:13;8.00;86.70
84294;DHT22;74463;51.182;3.210;2024-02-26T13:13:41;8.00;87.20
84294;DHT22;74463;51.182;3.210;2024-02-26T13:16:14;7.90;87.00
84294;DHT22;74463;51.182;3.210;2024-02-26T13:18:42;7.70;86.60
84294;DHT22;74463;51.182;3.210;2024-02-26T13:21:10;7.70;88.00
84294;DHT22;74463;51.182;3.210;2024-02-26T13:23:37;7.70;87.90
84294;DHT22;74463;51.182;3.210;2024-02-26T14:16:52;7.30;89.20
84294;DHT22;74463;51.182;3.210;2024-02-26T14:19:19;8.00;87.20
84294;DHT22;74463;51.182;3.210;2024-02-26T14:21:46;7.80;86.70
84294;DHT22;74463;51.182;3.210;2024-02-26T14:24:14;7.80;87.10
84294;DHT22;74463;51.182;3.210;2024-02-26T14:26:41;7.80;87.60
84294;DHT22;74463;51.182;3.210;2024-02-26T14:29:09;7.80;87.50
84294;DHT22;74463;51.182;3.210;2024-02-26T14:31:36;7.80;87.10
84294;DHT22;74463;51.182;3.210;2024-02-26T14:34:05;7.80;88.30
84294;DHT22;74463;51.182;3.210;2024-02-26T14:36:32;7.60;88.10
84294;DHT22;74463;51.182;3.210;2024-02-26T14:39:00;7.60;88.80
84294;DHT22;74463;51.182;3.210;2024-02-26T14:41:27;7.60;88.90
84294;DHT22;74463;51.182;3.210;2024-02-26T14:43:55;7.80;88.60
84294;DHT22;74463;51.182;3.210;2024-02-26T14:46:22;7.80;88.70
84294;DHT22;74463;51.182;3.210;2024-02-26T14:48:50;7.60;89.40
84294;DHT22;74463;51.182;3.210;2024-02-26T14:51:19;7.60;89.00
84294;DHT22;74463;51.182;3.210;2024-02-26T14:53:46;7.70;88.60
84294;DHT22;74463;51.182;3.210;2024-02-26T14:56:14;7.70;89.40
84294;DHT22;74463;51.182;3.210;2024-02-26T14:58:41;7.70;89.20
84294;DHT22;74463;51.182;3.210;2024-02-26T15:01:09;7.80;89.00
84294;DHT22;74463;51.182;3.210;2024-02-26T15:03:37;7.80;88.80
84294;DHT22;74463;51.182;3.210;2024-02-26T15:06:05;7.90;88.40
84294;DHT22;74463;51.182;3.210;2024-02-26T15:08:33;7.90;87.60
84294;DHT22;74463;51.182;3.210;2024-02-26T15:11:01;8.00;86.70
84294;DHT22;74463;51.182;3.210;2024-02-26T15:13:29;8.00;86.90
84294;DHT22;74463;51.182;3.210;2024-02-26T15:15:56;7.90;87.50
84294;DHT22;74463;51.182;3.210;2024-02-26T15:18:24;7.90;87.80
84294;DHT22;74463;51.182;3.210;2024-02-26T15:20:51;8.10;87.50
84294;DHT22;74463;51.182;3.210;2024-02-26T15:23:19;8.20;86.90
84294;DHT22;74463;51.182;3.210;2024-02-26T15:25:48;8.30;86.50
84294;DHT22;74463;51.182;3.210;2024-02-26T15:28:16;8.30;86.10
84294;DHT22;74463;51.182;3.210;2024-02-26T15:30:43;8.20;86.30
84294;DHT22;74463;51.182;3.210;2024-02-26T15:33:10;8.10;87.30
84294;DHT22;74463;51.182;3.210;2024-02-26T15:35:38;8.10;86.50
84294;DHT22;74463;51.182;3.210;2024-02-26T15:38:05;8.00;87.70
84294;DHT22;74463;51.182;3.210;2024-02-26T15:40:32;8.00;88.20
84294;DHT22;74463;51.182;3.210;2024-02-26T15:43:01;8.10;88.10
84294;DHT22;74463;51.182;3.210;2024-02-26T15:45:29;8.10;86.70
84294;DHT22;74463;51.182;3.210;2024-02-26T15:47:59;8.10;86.80
84294;DHT22;74463;51.182;3.210;2024-02-26T15:50:27;8.00;87.70
84294;DHT22;74463;51.182;3.210;2024-02-26T15:52:54;8.10;86.80
84294;DHT22;74463;51.182;3.210;2024-02-26T15:55:22;7.90;87.10
84294;DHT22;74463;51.182;3.210;2024-02-26T15:57:49;8.00;87.70
84294;DHT22;74463;51.182;3.210;2024-02-26T16:00:18;8.10;87.30
84294;DHT22;74463;51.182;3.210;2024-02-26T16:02:47;8.00;86.20
84294;DHT22;74463;51.182;3.210;2024-02-26T16:05:16;8.00;86.00
84294;DHT22;74463;51.182;3.210;2024-02-26T16:07:47;8.00;86.10
84294;DHT22;74463;51.182;3.210;2024-02-26T16:10:17;8.00;86.80
84294;DHT22;74463;51.182;3.210;2024-02-26T16:12:48;8.10;86.00
84294;DHT22;74463;51.182;3.210;2024-02-26T16:15:19;8.00;85.50
84294;DHT22;74463;51.182;3.210;2024-02-26T16:17:48;8.10;85.50
84294;DHT22;74463;51.182;3.210;2024-02-26T16:20:19;8.00;85.00
84294;DHT22;74463;51.182;3.210;2024-02-26T16:22:47;8.10;85.60
84294;DHT22;74463;51.182;3.210;2024-02-26T16:25:14;7.90;85.40
84294;DHT22;74463;51.182;3.210;2024-02-26T16:27:42;8.10;85.30
84294;DHT22;74463;51.182;3.210;2024-02-26T16:30:10;8.10;85.00
84294;DHT22;74463;51.182;3.210;2024-02-26T16:32:40;8.00;85.30
84294;DHT22;74463;51.182;3.210;2024-02-26T16:35:08;7.90;84.70
84294;DHT22;74463;51.182;3.210;2024-02-26T16:37:37;7.80;83.90